sensor_id;sensor_type;location;lat;lon;timestamp;pressure;altitude;pressure_sealevel;temperature;humidity
85641;BME280;76065;47.182;27.506;2024-02-28T00:00:54;101006.44;;;5.12;73.12
85641;BME280;76065;47.182;27.506;2024-02-28T00:03:20;101004.31;;;5.14;73.26
85641;BME280;76065;47.182;27.506;2024-02-28T00:05:47;101003.16;;;5.10;73.73
85641;BME280;76065;47.182;27.506;2024-02-28T00:08:13;100995.66;;;5.07;73.41
85641;BME280;76065;47.182;27.506;2024-02-28T00:10:39;100998.56;;;5.05;73.89
85641;BME280;76065;47.182;27.506;2024-02-28T00:13:04;100981.84;;;4.98;73.30
85641;BME280;76065;47.182;27.506;2024-02-28T00:15:30;100992.16;;;5.06;73.51
85641;BME280;76065;47.182;27.506;2024-02-28T00:17:55;100983.25;;;5.01;74.28
85641;BME280;76065;47.182;27.506;2024-02-28T00:20:21;101003.44;;;5.08;74.26
85641;BME280;76065;47.182;27.506;2024-02-28T00:22:46;101009.25;;;5.05;73.64
85641;BME280;76065;47.182;27.506;2024-02-28T00:25:12;101002.06;;;4.94;74.39
85641;BME280;76065;47.182;27.506;2024-02-28T00:27:39;100999.53;;;4.88;74.09
85641;BME280;76065;47.182;27.506;2024-02-28T00:30:05;100991.09;;;4.79;73.92
85641;BME280;76065;47.182;27.506;2024-02-28T00:32:33;100998.75;;;4.76;74.39
85641;BME280;76065;47.182;27.506;2024-02-28T00:34:59;100997.13;;;4.75;74.60
85641;BME280;76065;47.182;27.506;2024-02-28T00:37:24;101000.75;;;4.68;74.44
85641;BME280;76065;47.182;27.506;2024-02-28T00:39:50;100986.81;;;4.66;75.23
85641;BME280;76065;47.182;27.506;2024-02-28T00:42:16;100993.78;;;4.67;75.28
85641;BME280;76065;47.182;27.506;2024-02-28T00:44:42;100988.09;;;4.64;75.35
85641;BME280;76065;47.182;27.506;2024-02-28T00:47:08;100975.47;;;4.59;75.35
85641;BME280;76065;47.182;27.506;2024-02-28T00:49:34;100985.66;;;4.62;75.91
85641;BME280;76065;47.182;27.506;2024-02-28T00:52:00;100972.13;;;4.52;75.77
85641;BME280;76065;47.182;27.506;2024-02-28T00:54:26;100983.69;;;4.58;75.83
85641;BME280;76065;47.182;27.506;2024-02-28T00:56:51;100974.44;;;4.49;75.86
85641;BME280;76065;47.182;27.506;2024-02-28T00:59:17;100977.34;;;4.47;76.33
85641;BME280;76065;47.182;27.506;2024-02-28T01:01:43;100957.75;;;4.30;76.04
85641;BME280;76065;47.182;27.506;2024-02-28T01:04:08;100975.03;;;4.39;76.43
85641;BME280;76065;47.182;27.506;2024-02-28T01:06:34;100970.84;;;4.32;76.48
85641;BME280;76065;47.182;27.506;2024-02-28T01:08:59;100970.63;;;4.21;76.92
85641;BME280;76065;47.182;27.506;2024-02-28T01:11:25;100964.13;;;4.17;76.50
85641;BME280;76065;47.182;27.506;2024-02-28T01:13:51;100971.22;;;4.12;76.79
85641;BME280;76065;47.182;27.506;2024-02-28T01:16:16;100961.47;;;4.06;77.29
85641;BME280;76065;47.182;27.506;2024-02-28T01:18:42;100968.53;;;4.12;77.17
85641;BME280;76065;47.182;27.506;2024-02-28T01:21:08;100976.53;;;4.12;77.16
85641;BME280;76065;47.182;27.506;2024-02-28T01:23:33;100967.84;;;4.05;77.46
85641;BME280;76065;47.182;27.506;2024-02-28T01:25:59;100980.47;;;4.09;78.14
85641;BME280;76065;47.182;27.506;2024-02-28T01:28:24;100973.41;;;4.03;77.38
85641;BME280;76065;47.182;27.506;2024-02-28T01:30:50;100973.63;;;4.02;78.18
85641;BME280;76065;47.182;27.506;2024-02-28T01:33:15;100972.13;;;3.94;77.69
85641;BME280;76065;47.182;27.506;2024-02-28T01:35:41;100976.06;;;3.92;78.24
85641;BME280;76065;47.182;27.506;2024-02-28T01:38:06;100964.47;;;3.86;78.63
85641;BME280;76065;47.182;27.506;2024-02-28T01:40:32;100974.22;;;3.92;78.77
85641;BME280;76065;47.182;27.506;2024-02-28T01:43:07;100984.06;;;3.92;79.00
85641;BME280;76065;47.182;27.506;2024-02-28T01:45:32;100970.84;;;3.85;78.96
85641;BME280;76065;47.182;27.506;2024-02-28T01:47:58;100970.03;;;3.85;79.04
85641;BME280;76065;47.182;27.506;2024-02-28T01:50:24;100985.09;;;3.91;79.11
85641;BME280;76065;47.182;27.506;2024-02-28T01:52:50;100984.38;;;3.84;78.88
85641;BME280;76065;47.182;27.506;2024-02-28T01:55:16;100970.94;;;3.78;78.90
85641;BME280;76065;47.182;27.506;2024-02-28T01:57:42;100973.59;;;3.78;79.02
85641;BME280;76065;47.182;27.506;2024-02-28T02:00:08;100970.03;;;3.73;79.70
85641;BME280;76065;47.182;27.506;2024-02-28T02:02:34;100953.91;;;3.68;79.32
85641;BME280;76065;47.182;27.506;2024-02-28T02:04:59;100981.72;;;3.84;78.96
85641;BME280;76065;47.182;27.506;2024-02-28T02:07:25;100970.59;;;3.75;79.24
85641;BME280;76065;47.182;27.506;2024-02-28T02:09:51;100987.53;;;3.81;79.67
85641;BME280;76065;47.182;27.506;2024-02-28T02:12:17;100974.75;;;3.71;79.29
85641;BME280;76065;47.182;27.506;2024-02-28T02:14:50;100985.41;;;3.71;79.55
85641;BME280;76065;47.182;27.506;2024-02-28T02:17:16;100930.44;;;3.35;79.13
85641;BME280;76065;47.182;27.506;2024-02-28T02:19:41;101002.78;;;3.73;79.46
85641;BME280;76065;47.182;27.506;2024-02-28T02:22:08;100983.88;;;3.63;79.64
85641;BME280;76065;47.182;27.506;2024-02-28T02:24:34;100986.75;;;3.62;79.81
85641;BME280;76065;47.182;27.506;2024-02-28T02:27:01;100985.84;;;3.56;79.43
85641;BME280;76065;47.182;27.506;2024-02-28T02:29:27;100998.22;;;3.62;79.95
85641;BME280;76065;47.182;27.506;2024-02-28T02:31:53;101002.06;;;3.66;79.50
85641;BME280;76065;47.182;27.506;2024-02-28T02:34:19;101000.09;;;3.62;79.59
85641;BME280;76065;47.182;27.506;2024-02-28T02:36:45;101008.00;;;3.68;79.45
85641;BME280;76065;47.182;27.506;2024-02-28T02:39:10;100995.69;;;3.56;79.48
85641;BME280;76065;47.182;27.506;2024-02-28T02:41:36;100993.59;;;3.58;79.36
85641;BME280;76065;47.182;27.506;2024-02-28T02:44:01;101009.84;;;3.68;79.80
85641;BME280;76065;47.182;27.506;2024-02-28T02:46:27;101000.19;;;3.55;79.66
85641;BME280;76065;47.182;27.506;2024-02-28T02:48:52;101004.03;;;3.59;79.75
85641;BME280;76065;47.182;27.506;2024-02-28T02:51:19;101024.66;;;3.64;79.44
85641;BME280;76065;47.182;27.506;2024-02-28T02:53:44;101014.47;;;3.61;79.08
85641;BME280;76065;47.182;27.506;2024-02-28T02:56:10;101011.91;;;3.66;79.91
85641;BME280;76065;47.182;27.506;2024-02-28T02:58:35;101001.38;;;3.59;79.68
85641;BME280;76065;47.182;27.506;2024-02-28T03:01:01;100994.53;;;3.63;79.00
85641;BME280;76065;47.182;27.506;2024-02-28T03:03:27;101005.75;;;3.65;79.30
85641;BME280;76065;47.182;27.506;2024-02-28T03:05:52;100994.06;;;3.66;79.03
85641;BME280;76065;47.182;27.506;2024-02-28T03:08:18;101004.16;;;3.64;79.57
85641;BME280;76065;47.182;27.506;2024-02-28T03:10:43;100999.41;;;3.66;78.98
85641;BME280;76065;47.182;27.506;2024-02-28T03:13:09;101016.34;;;3.72;79.54
85641;BME280;76065;47.182;27.506;2024-02-28T03:15:34;101020.03;;;3.71;79.40
85641;BME280;76065;47.182;27.506;2024-02-28T03:18:00;101000.53;;;3.59;79.20
85641;BME280;76065;47.182;27.506;2024-02-28T03:20:27;101007.72;;;3.58;79.34
85641;BME280;76065;47.182;27.506;2024-02-28T03:22:52;101006.22;;;3.62;79.75
85641;BME280;76065;47.182;27.506;2024-02-28T03:25:18;100999.84;;;3.52;79.88
85641;BME280;76065;47.182;27.506;2024-02-28T03:27:43;100997.38;;;3.50;79.94
85641;BME280;76065;47.182;27.506;2024-02-28T03:30:09;100996.16;;;3.53;79.58
85641;BME280;76065;47.182;27.506;2024-02-28T03:32:35;101020.03;;;3.71;79.15
85641;BME280;76065;47.182;27.506;2024-02-28T03:35:00;101013.88;;;3.70;79.00
85641;BME280;76065;47.182;27.506;2024-02-28T03:37:26;101016.19;;;3.67;79.32
85641;BME280;76065;47.182;27.506;2024-02-28T03:39:51;101012.88;;;3.71;79.35
85641;BME280;76065;47.182;27.506;2024-02-28T03:42:17;101017.84;;;3.68;79.28
85641;BME280;76065;47.182;27.506;2024-02-28T03:44:43;100997.19;;;3.63;79.35
85641;BME280;76065;47.182;27.506;2024-02-28T03:47:09;101013.66;;;3.60;79.53
85641;BME280;76065;47.182;27.506;2024-02-28T03:49:34;101013.66;;;3.60;79.35
85641;BME280;76065;47.182;27.506;2024-02-28T03:52:00;101017.56;;;3.58;79.54
85641;BME280;76065;47.182;27.506;2024-02-28T03:54:26;101012.22;;;3.58;79.53
85641;BME280;76065;47.182;27.506;2024-02-28T03:56:52;101018.69;;;3.50;79.62
85641;BME280;76065;47.182;27.506;2024-02-28T03:59:18;101023.34;;;3.55;79.75
85641;BME280;76065;47.182;27.506;2024-02-28T04:01:44;101022.38;;;3.49;80.24
85641;BME280;76065;47.182;27.506;2024-02-28T04:04:09;101031.88;;;3.45;79.98
85641;BME280;76065;47.182;27.506;2024-02-28T04:06:35;101019.94;;;3.36;80.30
85641;BME280;76065;47.182;27.506;2024-02-28T04:09:00;101030.00;;;3.46;79.98
85641;BME280;76065;47.182;27.506;2024-02-28T04:11:26;101023.97;;;3.39;80.14
85641;BME280;76065;47.182;27.506;2024-02-28T04:13:52;101020.03;;;3.41;80.13
85641;BME280;76065;47.182;27.506;2024-02-28T04:16:17;101024.13;;;3.44;79.62
85641;BME280;76065;47.182;27.506;2024-02-28T04:18:42;101022.16;;;3.51;79.94
85641;BME280;76065;47.182;27.506;2024-02-28T04:21:08;101012.50;;;3.38;80.18
85641;BME280;76065;47.182;27.506;2024-02-28T04:23:34;101025.16;;;3.43;80.37
85641;BME280;76065;47.182;27.506;2024-02-28T04:26:00;101013.94;;;3.41;79.80
85641;BME280;76065;47.182;27.506;2024-02-28T04:28:25;101016.91;;;3.33;80.24
85641;BME280;76065;47.182;27.506;2024-02-28T04:30:51;101022.81;;;3.35;80.39
85641;BME280;76065;47.182;27.506;2024-02-28T04:33:16;101019.88;;;3.24;80.57
85641;BME280;76065;47.182;27.506;2024-02-28T04:35:42;101027.06;;;3.24;80.76
85641;BME280;76065;47.182;27.506;2024-02-28T04:38:07;101037.91;;;3.22;81.03
85641;BME280;76065;47.182;27.506;2024-02-28T04:40:33;101020.41;;;3.15;81.21
85641;BME280;76065;47.182;27.506;2024-02-28T04:42:59;101034.16;;;3.12;80.94
85641;BME280;76065;47.182;27.506;2024-02-28T04:45:25;101020.91;;;3.05;81.07
85641;BME280;76065;47.182;27.506;2024-02-28T04:47:50;101038.47;;;3.13;80.74
85641;BME280;76065;47.182;27.506;2024-02-28T04:50:17;101021.81;;;2.99;81.37
85641;BME280;76065;47.182;27.506;2024-02-28T04:52:43;101022.50;;;2.95;81.24
85641;BME280;76065;47.182;27.506;2024-02-28T04:55:08;101023.88;;;2.97;81.47
85641;BME280;76065;47.182;27.506;2024-02-28T04:57:34;101039.84;;;2.97;81.83
85641;BME280;76065;47.182;27.506;2024-02-28T04:59:59;101030.94;;;2.92;82.02
85641;BME280;76065;47.182;27.506;2024-02-28T05:02:25;101030.97;;;2.85;81.59
85641;BME280;76065;47.182;27.506;2024-02-28T05:04:51;101038.28;;;2.90;81.88
85641;BME280;76065;47.182;27.506;2024-02-28T05:07:17;101030.19;;;2.85;82.07
85641;BME280;76065;47.182;27.506;2024-02-28T05:09:42;101028.31;;;2.85;81.88
85641;BME280;76065;47.182;27.506;2024-02-28T05:12:08;101038.28;;;2.90;82.05
85641;BME280;76065;47.182;27.506;2024-02-28T05:14:34;101045.25;;;2.91;82.00
85641;BME280;76065;47.182;27.506;2024-02-28T05:16:59;101040.44;;;2.99;81.77
85641;BME280;76065;47.182;27.506;2024-02-28T05:19:25;101028.69;;;3.07;81.42
85641;BME280;76065;47.182;27.506;2024-02-28T05:21:50;101053.34;;;3.62;79.61
85641;BME280;76065;47.182;27.506;2024-02-28T05:24:16;101050.44;;;3.93;77.22
85641;BME280;76065;47.182;27.506;2024-02-28T05:26:42;101045.03;;;3.70;78.21
85641;BME280;76065;47.182;27.506;2024-02-28T05:29:07;101057.66;;;3.63;78.83
85641;BME280;76065;47.182;27.506;2024-02-28T05:31:33;101063.47;;;4.13;77.03
85641;BME280;76065;47.182;27.506;2024-02-28T05:33:59;101064.06;;;4.61;74.73
85641;BME280;76065;47.182;27.506;2024-02-28T05:36:29;101066.63;;;4.80;73.87
85641;BME280;76065;47.182;27.506;2024-02-28T05:38:56;101069.88;;;5.33;72.17
85641;BME280;76065;47.182;27.506;2024-02-28T05:41:22;101069.84;;;6.01;69.05
85641;BME280;76065;47.182;27.506;2024-02-28T05:43:49;101069.88;;;6.73;66.50
85641;BME280;76065;47.182;27.506;2024-02-28T05:46:16;101072.59;;;6.95;65.01
85641;BME280;76065;47.182;27.506;2024-02-28T05:48:42;101068.53;;;7.14;64.08
85641;BME280;76065;47.182;27.506;2024-02-28T05:51:08;101082.84;;;7.95;61.34
85641;BME280;76065;47.182;27.506;2024-02-28T05:53:34;101080.63;;;8.14;60.03
85641;BME280;76065;47.182;27.506;2024-02-28T05:56:04;101079.59;;;8.52;59.24
85641;BME280;76065;47.182;27.506;2024-02-28T05:58:30;101076.84;;;8.78;57.70
85641;BME280;76065;47.182;27.506;2024-02-28T06:00:56;101078.16;;;8.76;57.66
85641;BME280;76065;47.182;27.506;2024-02-28T06:03:22;101080.78;;;8.71;57.65
85641;BME280;76065;47.182;27.506;2024-02-28T06:05:48;101092.97;;;8.83;56.99
85641;BME280;76065;47.182;27.506;2024-02-28T06:08:14;101097.63;;;9.03;56.86
85641;BME280;76065;47.182;27.506;2024-02-28T06:10:39;101087.84;;;9.34;55.62
85641;BME280;76065;47.182;27.506;2024-02-28T06:13:07;101083.53;;;9.33;55.32
85641;BME280;76065;47.182;27.506;2024-02-28T06:15:33;101101.69;;;9.83;54.73
85641;BME280;76065;47.182;27.506;2024-02-28T06:17:59;101092.13;;;10.38;52.29
85641;BME280;76065;47.182;27.506;2024-02-28T06:20:26;101099.91;;;10.49;51.37
85641;BME280;76065;47.182;27.506;2024-02-28T06:22:52;101085.66;;;10.18;52.05
85641;BME280;76065;47.182;27.506;2024-02-28T06:25:18;101097.78;;;10.26;52.27
85641;BME280;76065;47.182;27.506;2024-02-28T06:27:45;101107.44;;;10.67;51.26
85641;BME280;76065;47.182;27.506;2024-02-28T06:30:11;101113.38;;;11.59;48.77
85641;BME280;76065;47.182;27.506;2024-02-28T06:32:42;101111.13;;;12.20;47.54
85641;BME280;76065;47.182;27.506;2024-02-28T06:35:08;101120.53;;;12.90;45.80
85641;BME280;76065;47.182;27.506;2024-02-28T06:37:34;101108.94;;;12.85;45.15
85641;BME280;76065;47.182;27.506;2024-02-28T06:40:01;101116.41;;;13.45;44.00
85641;BME280;76065;47.182;27.506;2024-02-28T06:42:29;101111.75;;;13.51;43.58
85641;BME280;76065;47.182;27.506;2024-02-28T06:44:55;101118.06;;;13.23;43.80
85641;BME280;76065;47.182;27.506;2024-02-28T06:47:20;101111.59;;;13.61;43.10
85641;BME280;76065;47.182;27.506;2024-02-28T06:49:46;101124.06;;;14.37;41.71
85641;BME280;76065;47.182;27.506;2024-02-28T06:52:12;101115.44;;;14.35;41.20
85641;BME280;76065;47.182;27.506;2024-02-28T06:54:37;101122.38;;;14.73;40.46
85641;BME280;76065;47.182;27.506;2024-02-28T06:57:03;101123.72;;;14.43;41.09
85641;BME280;76065;47.182;27.506;2024-02-28T06:59:29;101124.56;;;14.58;40.87
85641;BME280;76065;47.182;27.506;2024-02-28T07:01:54;101120.31;;;14.84;40.30
85641;BME280;76065;47.182;27.506;2024-02-28T07:04:20;101121.47;;;14.64;40.59
85641;BME280;76065;47.182;27.506;2024-02-28T07:06:45;101122.41;;;15.00;39.57
85641;BME280;76065;47.182;27.506;2024-02-28T07:09:11;101122.22;;;14.97;39.96
85641;BME280;76065;47.182;27.506;2024-02-28T07:11:38;101133.19;;;15.46;40.65
85641;BME280;76065;47.182;27.506;2024-02-28T07:14:04;101127.38;;;15.53;38.21
85641;BME280;76065;47.182;27.506;2024-02-28T07:16:30;101128.75;;;15.10;39.53
85641;BME280;76065;47.182;27.506;2024-02-28T07:19:00;101124.81;;;14.42;40.19
85641;BME280;76065;47.182;27.506;2024-02-28T07:21:25;101119.25;;;13.11;43.15
85641;BME280;76065;47.182;27.506;2024-02-28T07:23:51;101137.59;;;12.57;45.17
85641;BME280;76065;47.182;27.506;2024-02-28T07:26:17;101136.88;;;13.75;42.55
85641;BME280;76065;47.182;27.506;2024-02-28T07:28:43;101127.91;;;13.98;41.68
85641;BME280;76065;47.182;27.506;2024-02-28T07:31:15;101129.84;;;14.30;41.28
85641;BME280;76065;47.182;27.506;2024-02-28T07:33:41;101125.25;;;14.95;39.72
85641;BME280;76065;47.182;27.506;2024-02-28T07:36:06;101125.56;;;15.08;39.49
85641;BME280;76065;47.182;27.506;2024-02-28T07:38:32;101120.84;;;15.27;40.62
85641;BME280;76065;47.182;27.506;2024-02-28T07:40:58;101133.38;;;15.91;37.63
85641;BME280;76065;47.182;27.506;2024-02-28T07:43:23;101143.31;;;16.31;37.67
85641;BME280;76065;47.182;27.506;2024-02-28T07:45:49;101126.34;;;17.10;34.90
85641;BME280;76065;47.182;27.506;2024-02-28T07:48:15;101133.72;;;16.34;36.71
85641;BME280;76065;47.182;27.506;2024-02-28T07:50:44;101136.44;;;16.56;35.70
85641;BME280;76065;47.182;27.506;2024-02-28T07:53:10;101143.00;;;15.97;37.12
85641;BME280;76065;47.182;27.506;2024-02-28T07:55:35;101147.53;;;16.60;36.22
85641;BME280;76065;47.182;27.506;2024-02-28T07:58:01;101140.75;;;16.13;36.40
85641;BME280;76065;47.182;27.506;2024-02-28T08:00:26;101133.94;;;15.52;38.77
85641;BME280;76065;47.182;27.506;2024-02-28T08:02:52;101130.19;;;15.07;39.13
85641;BME280;76065;47.182;27.506;2024-02-28T08:05:17;101132.91;;;15.62;38.50
85641;BME280;76065;47.182;27.506;2024-02-28T08:07:43;101139.94;;;15.35;38.96
85641;BME280;76065;47.182;27.506;2024-02-28T08:10:09;101115.81;;;15.20;38.57
85641;BME280;76065;47.182;27.506;2024-02-28T08:12:36;101133.81;;;15.43;39.47
85641;BME280;76065;47.182;27.506;2024-02-28T08:15:02;101114.88;;;14.84;39.06
85641;BME280;76065;47.182;27.506;2024-02-28T08:17:28;101129.25;;;14.84;39.81
85641;BME280;76065;47.182;27.506;2024-02-28T08:19:53;101129.16;;;14.57;41.05
85641;BME280;76065;47.182;27.506;2024-02-28T08:22:19;101126.25;;;14.53;40.04
85641;BME280;76065;47.182;27.506;2024-02-28T08:24:45;101136.25;;;14.85;40.36
85641;BME280;76065;47.182;27.506;2024-02-28T08:27:10;101132.22;;;14.69;40.59
85641;BME280;76065;47.182;27.506;2024-02-28T08:29:40;101141.47;;;14.68;40.25
85641;BME280;76065;47.182;27.506;2024-02-28T08:32:10;101124.69;;;14.66;40.17
85641;BME280;76065;47.182;27.506;2024-02-28T08:34:35;101122.81;;;14.29;41.28
85641;BME280;76065;47.182;27.506;2024-02-28T08:37:01;101119.19;;;14.85;40.83
85641;BME280;76065;47.182;27.506;2024-02-28T08:39:26;101124.75;;;15.07;39.74
85641;BME280;76065;47.182;27.506;2024-02-28T08:41:52;101133.06;;;14.97;39.69
85641;BME280;76065;47.182;27.506;2024-02-28T08:44:17;101120.56;;;14.18;41.77
85641;BME280;76065;47.182;27.506;2024-02-28T08:46:43;101123.72;;;14.06;42.08
85641;BME280;76065;47.182;27.506;2024-02-28T08:49:08;101118.78;;;13.52;43.34
85641;BME280;76065;47.182;27.506;2024-02-28T08:51:34;101127.41;;;13.06;44.98
85641;BME280;76065;47.182;27.506;2024-02-28T08:54:00;101120.00;;;12.88;45.25
85641;BME280;76065;47.182;27.506;2024-02-28T08:56:25;101120.72;;;12.70;45.58
85641;BME280;76065;47.182;27.506;2024-02-28T08:58:51;101114.13;;;12.18;46.96
85641;BME280;76065;47.182;27.506;2024-02-28T09:01:16;101116.38;;;12.06;47.71
85641;BME280;76065;47.182;27.506;2024-02-28T09:03:42;101118.19;;;12.50;46.97
85641;BME280;76065;47.182;27.506;2024-02-28T09:06:08;101118.75;;;12.13;47.77
85641;BME280;76065;47.182;27.506;2024-02-28T09:08:33;101105.38;;;11.39;49.83
85641;BME280;76065;47.182;27.506;2024-02-28T09:10:59;101104.56;;;11.33;49.80
85641;BME280;76065;47.182;27.506;2024-02-28T09:13:25;101096.66;;;11.52;49.07
85641;BME280;76065;47.182;27.506;2024-02-28T09:15:51;101121.53;;;11.44;50.10
85641;BME280;76065;47.182;27.506;2024-02-28T09:18:16;101125.78;;;11.60;50.05
85641;BME280;76065;47.182;27.506;2024-02-28T09:20:42;101114.94;;;11.70;49.37
85641;BME280;76065;47.182;27.506;2024-02-28T09:23:08;101119.25;;;11.07;50.39
85641;BME280;76065;47.182;27.506;2024-02-28T09:25:33;101112.56;;;10.54;51.96
85641;BME280;76065;47.182;27.506;2024-02-28T09:28:01;101110.94;;;10.68;52.06
85641;BME280;76065;47.182;27.506;2024-02-28T09:30:27;101095.19;;;11.15;50.38
85641;BME280;76065;47.182;27.506;2024-02-28T09:32:53;101093.97;;;10.83;50.66
85641;BME280;76065;47.182;27.506;2024-02-28T09:35:19;101108.47;;;10.92;50.64
85641;BME280;76065;47.182;27.506;2024-02-28T09:37:45;101122.16;;;11.20;50.55
85641;BME280;76065;47.182;27.506;2024-02-28T09:40:11;101133.25;;;11.04;50.71
85641;BME280;76065;47.182;27.506;2024-02-28T09:42:38;101115.84;;;11.50;51.50
85641;BME280;76065;47.182;27.506;2024-02-28T09:45:04;101119.19;;;12.25;48.03
85641;BME280;76065;47.182;27.506;2024-02-28T09:47:30;101103.97;;;12.00;47.66
85641;BME280;76065;47.182;27.506;2024-02-28T09:49:57;101104.31;;;11.89;47.71
85641;BME280;76065;47.182;27.506;2024-02-28T09:52:26;101116.25;;;11.83;48.65
85641;BME280;76065;47.182;27.506;2024-02-28T09:54:53;101109.81;;;11.79;47.65
85641;BME280;76065;47.182;27.506;2024-02-28T09:57:18;101112.50;;;11.68;48.97
85641;BME280;76065;47.182;27.506;2024-02-28T09:59:45;101095.81;;;11.66;49.04
85641;BME280;76065;47.182;27.506;2024-02-28T10:02:11;101116.63;;;12.10;47.58
85641;BME280;76065;47.182;27.506;2024-02-28T10:04:39;101109.50;;;11.80;48.58
85641;BME280;76065;47.182;27.506;2024-02-28T10:07:13;101117.69;;;11.60;48.65
85641;BME280;76065;47.182;27.506;2024-02-28T10:09:40;101117.59;;;11.85;48.62
85641;BME280;76065;47.182;27.506;2024-02-28T10:12:06;101110.66;;;12.47;47.81
85641;BME280;76065;47.182;27.506;2024-02-28T10:14:32;101112.47;;;12.23;47.25
85641;BME280;76065;47.182;27.506;2024-02-28T10:16:57;101107.47;;;12.40;46.88
85641;BME280;76065;47.182;27.506;2024-02-28T10:19:23;101110.59;;;12.52;46.64
85641;BME280;76065;47.182;27.506;2024-02-28T10:21:50;101089.78;;;13.10;45.64
85641;BME280;76065;47.182;27.506;2024-02-28T10:24:15;101090.31;;;13.54;44.57
85641;BME280;76065;47.182;27.506;2024-02-28T10:26:45;101092.66;;;13.61;45.19
85641;BME280;76065;47.182;27.506;2024-02-28T10:29:23;101089.19;;;13.37;45.72
85641;BME280;76065;47.182;27.506;2024-02-28T10:31:49;101071.97;;;13.70;45.63
85641;BME280;76065;47.182;27.506;2024-02-28T10:34:18;101071.44;;;13.49;44.74
85641;BME280;76065;47.182;27.506;2024-02-28T10:36:46;101073.22;;;13.59;44.84
85641;BME280;76065;47.182;27.506;2024-02-28T10:39:12;101061.19;;;13.46;44.96
85641;BME280;76065;47.182;27.506;2024-02-28T10:41:38;101074.88;;;13.92;45.46
85641;BME280;76065;47.182;27.506;2024-02-28T10:44:04;101072.19;;;13.55;45.74
85641;BME280;76065;47.182;27.506;2024-02-28T10:46:31;101058.59;;;13.18;46.93
85641;BME280;76065;47.182;27.506;2024-02-28T10:48:57;101069.09;;;12.95;47.55
85641;BME280;76065;47.182;27.506;2024-02-28T10:51:24;101064.16;;;13.26;47.23
85641;BME280;76065;47.182;27.506;2024-02-28T10:54:00;101065.81;;;13.46;45.37
85641;BME280;76065;47.182;27.506;2024-02-28T10:56:28;101070.78;;;13.39;46.96
85641;BME280;76065;47.182;27.506;2024-02-28T10:58:57;101060.88;;;13.29;46.94
85641;BME280;76065;47.182;27.506;2024-02-28T11:01:24;101053.06;;;13.28;47.67
85641;BME280;76065;47.182;27.506;2024-02-28T11:03:51;101054.03;;;13.55;46.56
85641;BME280;76065;47.182;27.506;2024-02-28T11:06:21;101066.28;;;13.72;46.14
85641;BME280;76065;47.182;27.506;2024-02-28T11:08:48;101049.06;;;13.81;45.91
85641;BME280;76065;47.182;27.506;2024-02-28T11:11:14;101045.56;;;13.62;43.39
85641;BME280;76065;47.182;27.506;2024-02-28T11:13:54;101061.00;;;13.62;44.16
85641;BME280;76065;47.182;27.506;2024-02-28T11:18:53;101058.72;;;13.69;43.62
85641;BME280;76065;47.182;27.506;2024-02-28T11:21:19;101068.22;;;14.03;43.28
85641;BME280;76065;47.182;27.506;2024-02-28T11:23:48;101070.69;;;14.37;42.66
85641;BME280;76065;47.182;27.506;2024-02-28T11:26:15;101067.69;;;14.39;43.47
85641;BME280;76065;47.182;27.506;2024-02-28T11:28:41;101065.19;;;14.24;43.91
85641;BME280;76065;47.182;27.506;2024-02-28T11:31:06;101071.03;;;14.31;43.50
85641;BME280;76065;47.182;27.506;2024-02-28T11:33:32;101052.94;;;14.45;43.27
85641;BME280;76065;47.182;27.506;2024-02-28T11:35:59;101071.47;;;14.70;43.02
85641;BME280;76065;47.182;27.506;2024-02-28T11:38:27;101055.94;;;14.25;44.24
85641;BME280;76065;47.182;27.506;2024-02-28T11:40:53;101062.91;;;14.31;44.47
85641;BME280;76065;47.182;27.506;2024-02-28T11:43:19;101059.34;;;14.49;43.93
85641;BME280;76065;47.182;27.506;2024-02-28T11:45:44;101060.19;;;14.77;43.98
85641;BME280;76065;47.182;27.506;2024-02-28T11:48:14;101048.38;;;15.00;42.90
85641;BME280;76065;47.182;27.506;2024-02-28T11:50:39;101061.44;;;14.84;43.70
85641;BME280;76065;47.182;27.506;2024-02-28T11:53:08;101066.44;;;14.77;44.66
85641;BME280;76065;47.182;27.506;2024-02-28T11:55:34;101063.31;;;14.70;44.77
85641;BME280;76065;47.182;27.506;2024-02-28T11:58:00;101069.75;;;14.74;44.58
85641;BME280;76065;47.182;27.506;2024-02-28T12:00:26;101072.03;;;14.53;44.41
85641;BME280;76065;47.182;27.506;2024-02-28T12:02:52;101071.00;;;14.49;45.41
85641;BME280;76065;47.182;27.506;2024-02-28T12:05:22;101057.22;;;14.14;44.82
85641;BME280;76065;47.182;27.506;2024-02-28T12:07:47;101070.88;;;14.41;45.41
85641;BME280;76065;47.182;27.506;2024-02-28T12:10:13;101057.56;;;14.58;45.02
85641;BME280;76065;47.182;27.506;2024-02-28T12:12:39;101064.69;;;14.54;44.97
85641;BME280;76065;47.182;27.506;2024-02-28T12:15:06;101058.63;;;14.76;45.09
85641;BME280;76065;47.182;27.506;2024-02-28T12:17:32;101049.53;;;14.53;45.35
85641;BME280;76065;47.182;27.506;2024-02-28T12:20:01;101055.91;;;13.92;46.18
85641;BME280;76065;47.182;27.506;2024-02-28T12:22:26;101052.94;;;13.75;46.65
85641;BME280;76065;47.182;27.506;2024-02-28T12:24:53;101047.06;;;13.49;47.96
85641;BME280;76065;47.182;27.506;2024-02-28T12:27:19;101065.69;;;13.56;48.14
85641;BME280;76065;47.182;27.506;2024-02-28T12:29:44;101057.03;;;13.73;47.94
85641;BME280;76065;47.182;27.506;2024-02-28T12:32:10;101051.09;;;14.08;47.30
85641;BME280;76065;47.182;27.506;2024-02-28T12:34:35;101051.91;;;14.41;46.05
85641;BME280;76065;47.182;27.506;2024-02-28T12:37:01;101050.28;;;14.72;45.01
85641;BME280;76065;47.182;27.506;2024-02-28T12:39:28;101041.03;;;15.00;44.08
85641;BME280;76065;47.182;27.506;2024-02-28T12:41:53;101002.03;;;14.69;43.49